Airfield :
LOGIN :

Register | Disclaimer

   EN    FR    IT 

 










Legend :    VFR   Marginal VFR   IFR   Intensive IFR   Very Intensive IFR
Visi :
Ceiling :
>= 8 km
>= 3000ft
5 to 8 km
1000 to 3000 ft
1500m to 5 km
500 to 1000 ft
800 to 1500m
200 to 500 ft
< 800m
< 200 ft
Symbols :   Thunderstorms  Fog  Heavy snow  Heavy precipitations  Wind > 20 kt
SIGMETs :     Misc.  Thunderstorms  Icing  Turbulence  Mountain Waves  Volcanic Ashes







- Airport Elevation : 297 ft


EGVP - Middle Wallop

CURRENT METAR :
  • 201350Z 18008KT 9999 SCT038 SCT050 24/13 Q1013 BLU NOSIG

EXPIRED METARs :
  • 201250Z 13007KT 9999 FEW035 BKN045 23/14 Q1014 BLU NOSIG
  • 201150Z 14005KT 9999 SCT035 BKN050 23/13 Q1014 BLU NOSIG

TAF TAF EGVP
Valid from the 20 at 15:00 until the 21 at 00:00 UTC


201316Z 2015/2024 14004KT 9999 SCT035
PROB30
TEMPO 2015/2024 5000 +SHRA SCT035CB
ATIS : +44 1980 674 142
No reported NOTAMs for that airfield.



MET'MAP, your aeronautical weather chart ! - Copyright ORBIFLY December 2007 - Disclaimer

ORBIFLY MET'MAP TEAM :

Programming & Development : Alexandra Zaïnal
Concept & Development : Baudouin d'Aumeries
Co-Development & Prog : Marc-Olivier Méhu
Technical & hardware support : Manuel Goepfert

Contact : metmap@orbifly.com




SOURCES & CREDITS :

   NOAA